createdAt,value
2022-09-01T00:01:42.176Z,66.50
2022-09-01T00:04:12.808Z,66.70
2022-09-01T00:06:40.975Z,66.80
2022-09-01T00:09:14.664Z,66.90
2022-09-01T00:11:50.304Z,67.10
2022-09-01T00:14:29.439Z,67.20
2022-09-01T00:17:03.406Z,67.30
2022-09-01T00:19:30.640Z,67.30
2022-09-01T00:21:57.815Z,67.30
2022-09-01T00:24:26.350Z,67.40
2022-09-01T00:26:54.801Z,67.50
2022-09-01T00:29:21.947Z,67.70
2022-09-01T00:31:49.632Z,67.70
2022-09-01T00:34:17.086Z,67.80
2022-09-01T00:36:43.955Z,67.90
2022-09-01T00:39:10.951Z,68.20
2022-09-01T00:41:39.753Z,68.40
2022-09-01T00:44:09.423Z,68.50
2022-09-01T00:46:55.019Z,68.50
2022-09-01T00:49:43.027Z,68.60
2022-09-01T00:52:22.137Z,68.60
2022-09-01T00:54:58.259Z,68.70
2022-09-01T00:57:25.636Z,68.80
2022-09-01T01:00:01.521Z,69.00
2022-09-01T01:02:28.460Z,69.10
2022-09-01T01:05:00.426Z,69.10
2022-09-01T01:07:28.347Z,69.30
2022-09-01T01:09:55.977Z,69.40
2022-09-01T01:12:23.682Z,70.20
2022-09-01T01:14:51.011Z,69.40
2022-09-01T01:17:23.251Z,69.60
2022-09-01T01:20:11.562Z,69.90
2022-09-01T01:23:09.086Z,69.90
2022-09-01T01:25:44.221Z,69.80
2022-09-01T01:28:21.111Z,69.90
2022-09-01T01:30:55.913Z,70.10
2022-09-01T01:33:27.888Z,70.20
2022-09-01T01:35:57.366Z,70.20
2022-09-01T01:38:27.435Z,70.20
2022-09-01T01:40:56.210Z,70.20
2022-09-01T01:43:24.890Z,70.20
2022-09-01T01:45:54.166Z,70.50
2022-09-01T01:48:25.568Z,70.60
2022-09-01T01:50:53.644Z,70.60
2022-09-01T01:53:21.245Z,70.90
2022-09-01T01:55:51.578Z,70.60
2022-09-01T01:58:20.821Z,70.60
2022-09-01T02:00:49.783Z,70.50
2022-09-01T02:03:21.916Z,70.40
2022-09-01T02:05:52.394Z,70.50
2022-09-01T02:08:22.700Z,70.50
2022-09-01T02:10:52.339Z,70.40
2022-09-01T02:13:30.817Z,70.40
2022-09-01T02:16:02.127Z,70.40
2022-09-01T02:18:35.648Z,70.60
2022-09-01T02:21:11.218Z,70.50
2022-09-01T02:23:41.385Z,70.40
2022-09-01T02:26:16.721Z,70.50
2022-09-01T02:28:50.926Z,70.50
2022-09-01T02:31:20.951Z,70.40
2022-09-01T02:33:48.630Z,70.50
2022-09-01T02:36:19.207Z,70.60
2022-09-01T02:38:53.529Z,70.60
2022-09-01T02:41:23.639Z,70.50
2022-09-01T02:43:51.046Z,70.40
2022-09-01T02:46:19.838Z,70.40
2022-09-01T02:48:51.476Z,70.30
2022-09-01T02:51:22.332Z,70.20
2022-09-01T02:53:52.526Z,70.20
2022-09-01T02:56:25.015Z,70.20
2022-09-01T02:58:52.919Z,70.30
2022-09-01T03:01:24.574Z,70.40
2022-09-01T03:03:55.489Z,70.40
2022-09-01T03:06:24.090Z,70.40
2022-09-01T03:08:53.393Z,70.30
2022-09-01T03:11:20.451Z,70.30
2022-09-01T03:13:47.231Z,70.20
2022-09-01T03:16:14.014Z,70.20
2022-09-01T03:18:40.764Z,70.20
2022-09-01T03:21:08.755Z,70.00
2022-09-01T03:23:36.756Z,70.00
2022-09-01T03:26:04.030Z,69.90
2022-09-01T03:28:31.886Z,69.90
2022-09-01T03:30:59.807Z,69.90
2022-09-01T03:33:28.512Z,69.90
2022-09-01T03:35:56.884Z,69.80
2022-09-01T03:38:25.024Z,69.90
2022-09-01T03:41:00.835Z,69.80
2022-09-01T03:43:35.531Z,69.90
2022-09-01T03:46:04.041Z,70.00
2022-09-01T03:48:32.362Z,70.00
2022-09-01T03:51:02.695Z,70.10
2022-09-01T03:53:34.975Z,70.10
2022-09-01T03:56:04.112Z,70.10
2022-09-01T03:58:32.233Z,70.20
2022-09-01T04:01:02.019Z,70.30
2022-09-01T04:03:34.441Z,70.30
2022-09-01T04:06:03.180Z,70.40
2022-09-01T04:08:32.756Z,70.20
2022-09-01T04:11:03.737Z,70.20
2022-09-01T04:13:36.097Z,70.20
2022-09-01T04:16:03.761Z,70.10
2022-09-01T04:18:30.559Z,70.10
2022-09-01T04:20:59.607Z,70.10
2022-09-01T04:23:33.874Z,70.00
2022-09-01T04:26:14.766Z,70.00
2022-09-01T04:28:45.501Z,70.00
2022-09-01T04:31:19.397Z,69.90
2022-09-01T04:33:52.599Z,69.80
2022-09-01T04:36:23.680Z,70.00
2022-09-01T04:38:54.584Z,70.00
2022-09-01T04:41:25.710Z,70.00
2022-09-01T04:43:56.901Z,70.00
2022-09-01T04:46:32.039Z,70.00
2022-09-01T04:48:59.665Z,70.00
2022-09-01T04:51:29.503Z,70.00
2022-09-01T04:53:57.645Z,69.80
2022-09-01T04:56:26.669Z,69.90
2022-09-01T04:59:07.897Z,69.90
2022-09-01T05:01:43.275Z,69.90
2022-09-01T05:04:14.806Z,69.70
2022-09-01T05:06:44.473Z,69.80
2022-09-01T05:09:13.854Z,70.00
2022-09-01T05:12:12.939Z,69.90
2022-09-01T05:14:48.351Z,69.90
2022-09-01T05:17:18.582Z,70.00
2022-09-01T05:19:47.989Z,70.00
2022-09-01T05:22:18.629Z,69.80
2022-09-01T05:24:54.885Z,69.80
2022-09-01T05:27:22.845Z,69.60
2022-09-01T05:29:50.379Z,69.40
2022-09-01T05:32:17.364Z,69.30
2022-09-01T05:34:45.184Z,69.10
2022-09-01T05:37:14.504Z,68.70
2022-09-01T05:39:41.698Z,68.60
2022-09-01T05:42:09.631Z,68.40
2022-09-01T05:44:44.819Z,68.20
2022-09-01T05:47:20.983Z,68.30
2022-09-01T05:49:50.383Z,68.30
2022-09-01T05:52:17.446Z,68.20
2022-09-01T05:54:47.956Z,68.10
2022-09-01T05:57:35.851Z,68.20
2022-09-01T06:00:10.964Z,68.00
2022-09-01T06:02:40.998Z,67.90
2022-09-01T06:05:10.850Z,67.80
2022-09-01T06:07:40.514Z,67.60
2022-09-01T06:10:07.763Z,67.50
2022-09-01T06:12:34.754Z,67.30
2022-09-01T06:15:01.675Z,67.10
2022-09-01T06:17:29.995Z,66.90
2022-09-01T06:20:01.910Z,66.70
2022-09-01T06:22:29.581Z,66.50
2022-09-01T06:25:02.326Z,66.40
2022-09-01T06:27:42.441Z,66.10
2022-09-01T06:30:22.575Z,66.00
2022-09-01T06:32:56.038Z,66.10
2022-09-01T06:35:29.347Z,66.10
2022-09-01T06:37:58.368Z,66.00
2022-09-01T06:40:42.260Z,65.90
2022-09-01T06:43:12.478Z,65.90
2022-09-01T06:45:44.573Z,65.90
2022-09-01T06:48:16.530Z,65.80
2022-09-01T06:53:35.214Z,65.90
2022-09-01T06:56:04.551Z,65.80
2022-09-01T06:58:32.282Z,65.60
2022-09-01T07:00:59.142Z,65.50
2022-09-01T07:03:26.418Z,65.40
2022-09-01T07:06:59.052Z,65.40
2022-09-01T07:12:26.251Z,65.20
2022-09-01T07:17:42.625Z,64.90
2022-09-01T07:20:27.289Z,64.90
2022-09-01T07:28:38.904Z,64.10
2022-09-01T07:39:51.177Z,62.80
2022-09-01T07:42:30.322Z,64.70
2022-09-01T07:42:56.719Z,64.50
2022-09-01T07:45:59.089Z,62.20
2022-09-01T07:48:36.682Z,62.00
2022-09-01T07:54:06.106Z,61.60
2022-09-01T07:56:39.468Z,61.40
2022-09-01T07:59:09.335Z,61.30
2022-09-01T08:01:47.576Z,61.00
2022-09-01T08:04:14.874Z,60.70
2022-09-01T08:06:43.452Z,60.50
2022-09-01T08:09:11.903Z,60.10
2022-09-01T08:12:01.617Z,59.80
2022-09-01T08:14:33.761Z,59.60
2022-09-01T08:17:17.127Z,59.50
2022-09-01T08:19:46.885Z,59.00
2022-09-01T08:22:24.038Z,58.90
2022-09-01T08:24:59.157Z,58.20
2022-09-01T08:27:25.994Z,58.00
2022-09-01T08:29:52.703Z,57.80
2022-09-01T08:32:20.899Z,57.60
2022-09-01T08:34:47.939Z,57.60
2022-09-01T08:37:14.803Z,56.90
2022-09-01T08:39:42.383Z,56.10
2022-09-01T08:42:53.658Z,55.30
2022-09-01T08:45:22.900Z,54.60
2022-09-01T08:48:29.209Z,55.60
2022-09-01T08:50:45.637Z,53.60
2022-09-01T08:53:58.925Z,52.90
2022-09-01T08:56:26.847Z,52.60
2022-09-01T08:58:54.416Z,52.10
2022-09-01T09:01:38.417Z,51.40
2022-09-01T09:04:13.270Z,50.70
2022-09-01T09:06:57.964Z,51.10
2022-09-01T09:09:34.624Z,49.70
2022-09-01T09:12:29.399Z,49.10
2022-09-01T09:15:21.340Z,48.30
2022-09-01T09:18:00.354Z,48.00
2022-09-01T09:20:28.799Z,47.40
2022-09-01T09:22:59.315Z,47.10
2022-09-01T09:25:29.552Z,46.50
2022-09-01T09:28:03.278Z,46.10
2022-09-01T09:30:32.355Z,45.60
2022-09-01T09:35:51.691Z,45.60
2022-09-01T09:38:28.965Z,45.30
2022-09-01T09:41:18.302Z,44.20
2022-09-01T09:43:59.185Z,43.80
2022-09-01T09:46:32.116Z,43.40
2022-09-01T09:49:36.166Z,43.30
2022-09-01T09:52:10.382Z,43.00
2022-09-01T09:54:41.532Z,42.70
2022-09-01T09:57:18.023Z,41.60
2022-09-01T09:59:58.121Z,40.50
2022-09-01T10:02:34.415Z,41.10
2022-09-01T10:05:21.880Z,41.00
2022-09-01T10:07:49.142Z,40.80
2022-09-01T10:10:36.574Z,40.70
2022-09-01T10:13:03.541Z,41.80
2022-09-01T10:15:33.411Z,40.50
2022-09-01T10:18:37.679Z,40.30
2022-09-01T10:21:30.377Z,40.30
2022-09-01T10:26:52.035Z,38.60
2022-09-01T10:29:25.548Z,38.20
2022-09-01T10:32:14.767Z,38.40
2022-09-01T10:34:42.697Z,38.10
2022-09-01T10:37:11.704Z,38.10
2022-09-01T10:40:21.453Z,38.00
2022-09-01T10:42:55.362Z,38.00
2022-09-01T10:45:40.172Z,37.80
2022-09-01T10:48:32.114Z,37.60
2022-09-01T10:51:19.029Z,37.40
2022-09-01T10:53:47.613Z,37.30
2022-09-01T10:56:36.921Z,37.10
2022-09-01T10:59:43.273Z,36.30
2022-09-01T11:02:26.465Z,35.90
2022-09-01T11:04:54.576Z,36.20
2022-09-01T11:07:44.353Z,36.50
2022-09-01T11:10:35.601Z,36.10
2022-09-01T11:13:39.758Z,35.10
2022-09-01T11:16:51.369Z,35.00
2022-09-01T11:19:21.647Z,34.20
2022-09-01T11:22:02.744Z,35.00
2022-09-01T11:24:38.322Z,34.70
2022-09-01T11:27:07.204Z,34.80
2022-09-01T11:29:59.623Z,33.20
2022-09-01T11:32:34.080Z,34.00
2022-09-01T11:35:05.486Z,33.30
2022-09-01T11:37:33.395Z,32.60
2022-09-01T11:40:04.279Z,33.10
2022-09-01T11:42:45.893Z,33.70
2022-09-01T11:45:15.518Z,32.30
2022-09-01T11:48:10.619Z,33.00
2022-09-01T11:50:41.966Z,33.00
2022-09-01T11:53:20.032Z,32.90
2022-09-01T11:55:49.776Z,32.70
2022-09-01T11:58:34.460Z,32.50
2022-09-01T12:01:30.561Z,32.10
2022-09-01T12:03:58.785Z,32.00
2022-09-01T12:06:29.421Z,31.90
2022-09-01T12:09:02.128Z,32.20
2022-09-01T12:11:33.886Z,32.40
2022-09-01T12:14:11.596Z,32.10
2022-09-01T12:16:42.125Z,32.30
2022-09-01T12:19:21.986Z,31.50
2022-09-01T12:22:00.761Z,32.00
2022-09-01T12:24:30.389Z,32.00
2022-09-01T12:27:01.131Z,32.30
2022-09-01T12:29:32.179Z,32.20
2022-09-01T12:32:00.109Z,32.20
2022-09-01T12:35:00.824Z,31.80
2022-09-01T12:37:28.126Z,32.10
2022-09-01T12:39:58.461Z,32.20
2022-09-01T12:42:28.265Z,32.20
2022-09-01T12:44:57.140Z,32.50
2022-09-01T12:47:40.808Z,32.40
2022-09-01T12:50:09.163Z,32.50
2022-09-01T12:52:44.817Z,32.80
2022-09-01T12:58:09.715Z,32.20
2022-09-01T13:00:55.665Z,32.10
2022-09-01T13:03:23.162Z,32.10
2022-09-01T13:05:53.428Z,32.00
2022-09-01T13:08:28.743Z,31.80
2022-09-01T13:11:17.889Z,31.70
2022-09-01T13:13:44.803Z,33.10
2022-09-01T13:16:12.990Z,32.00
2022-09-01T13:21:30.043Z,32.20
2022-09-01T13:23:57.174Z,32.50
2022-09-01T13:26:24.038Z,32.70
2022-09-01T13:28:51.518Z,33.80
2022-09-01T13:31:34.324Z,32.50
2022-09-01T13:34:10.642Z,31.90
2022-09-01T13:36:49.440Z,32.20
2022-09-01T13:39:18.927Z,31.90
2022-09-01T13:41:47.041Z,31.60
2022-09-01T13:44:13.845Z,31.70
2022-09-01T13:50:05.137Z,31.70
2022-09-01T13:52:15.090Z,31.70
2022-09-01T13:54:44.229Z,31.50
2022-09-01T13:57:11.634Z,31.50
2022-09-01T13:59:38.883Z,31.60
2022-09-01T14:02:05.672Z,31.70
2022-09-01T14:04:32.465Z,31.90
2022-09-01T14:06:59.668Z,32.00
2022-09-01T14:09:26.410Z,32.00
2022-09-01T14:11:54.158Z,31.60
2022-09-01T14:14:21.253Z,31.70
2022-09-01T14:16:48.090Z,32.00
2022-09-01T14:19:15.727Z,32.00
2022-09-01T14:21:42.641Z,32.20
2022-09-01T14:24:09.331Z,32.60
2022-09-01T14:26:36.018Z,32.70
2022-09-01T14:29:02.726Z,32.80
2022-09-01T14:31:29.696Z,32.90
2022-09-01T14:33:56.340Z,32.70
2022-09-01T14:36:25.865Z,32.60
2022-09-01T14:38:53.710Z,32.50
2022-09-01T14:41:24.021Z,32.30
2022-09-01T14:43:54.778Z,32.60
2022-09-01T14:46:23.170Z,32.00
2022-09-01T14:48:50.673Z,32.20
2022-09-01T14:52:10.311Z,32.30
2022-09-01T14:54:14.537Z,32.30
2022-09-01T14:56:41.906Z,32.50
2022-09-01T14:59:10.819Z,32.70
2022-09-01T15:01:37.633Z,32.50
2022-09-01T15:04:04.407Z,32.30
2022-09-01T15:06:31.654Z,32.60
2022-09-01T15:08:59.754Z,32.60
2022-09-01T15:11:26.440Z,32.20
2022-09-01T15:13:53.099Z,32.60
2022-09-01T15:16:23.775Z,32.60
2022-09-01T15:18:50.978Z,32.20
2022-09-01T15:21:30.604Z,32.00
2022-09-01T15:23:57.512Z,32.30
2022-09-01T15:26:24.276Z,32.10
2022-09-01T15:28:51.098Z,32.30
2022-09-01T15:31:19.071Z,32.30
2022-09-01T15:34:02.435Z,32.30
2022-09-01T15:36:31.211Z,32.40
2022-09-01T15:38:58.920Z,32.40
2022-09-01T15:41:29.634Z,32.30
2022-09-01T15:43:57.826Z,32.40
2022-09-01T15:46:31.820Z,32.60
2022-09-01T15:49:00.116Z,32.30
2022-09-01T15:51:34.228Z,32.00
2022-09-01T15:54:06.951Z,32.00
2022-09-01T15:56:33.739Z,32.00
2022-09-01T15:59:02.310Z,31.80
2022-09-01T16:01:32.508Z,31.70
2022-09-01T16:04:01.139Z,31.80
2022-09-01T16:06:28.125Z,32.20
2022-09-01T16:08:54.940Z,32.00
2022-09-01T16:11:23.468Z,32.20
2022-09-01T16:13:54.112Z,33.40
2022-09-01T16:16:56.667Z,32.10
2022-09-01T16:19:42.893Z,32.50
2022-09-01T16:22:31.207Z,32.60
2022-09-01T16:25:06.567Z,32.60
2022-09-01T16:27:38.734Z,32.70
2022-09-01T16:30:12.413Z,33.00
2022-09-01T16:32:44.927Z,33.10
2022-09-01T16:35:11.596Z,33.00
2022-09-01T16:38:16.612Z,33.20
2022-09-01T16:41:42.259Z,32.90
2022-09-01T16:44:21.502Z,32.70
2022-09-01T16:47:02.755Z,33.20
2022-09-01T16:49:46.239Z,33.40
2022-09-01T16:52:32.800Z,33.50
2022-09-01T16:55:54.231Z,33.80
2022-09-01T16:58:37.077Z,34.00
2022-09-01T17:01:13.064Z,34.20
2022-09-01T17:04:22.419Z,34.70
2022-09-01T17:07:16.578Z,34.60
2022-09-01T17:09:56.618Z,34.40
2022-09-01T17:12:39.187Z,34.50
2022-09-01T17:15:15.918Z,34.60
2022-09-01T17:17:53.148Z,35.20
2022-09-01T17:20:24.938Z,35.50
2022-09-01T17:22:54.179Z,35.50
2022-09-01T17:25:25.917Z,35.50
2022-09-01T17:28:00.883Z,35.80
2022-09-01T17:30:27.730Z,36.00
2022-09-01T17:33:23.078Z,36.20
2022-09-01T17:36:09.068Z,36.40
2022-09-01T17:38:57.026Z,36.20
2022-09-01T17:41:41.919Z,36.50
2022-09-01T17:44:24.199Z,36.60
2022-09-01T17:47:01.759Z,36.90
2022-09-01T17:49:44.542Z,37.20
2022-09-01T17:52:22.617Z,37.30
2022-09-01T17:55:02.399Z,37.60
2022-09-01T17:57:48.705Z,37.80
2022-09-01T18:00:40.144Z,38.20
2022-09-01T18:03:25.956Z,38.50
2022-09-01T18:06:13.929Z,38.50
2022-09-01T18:08:47.673Z,38.70
2022-09-01T18:11:26.617Z,38.90
2022-09-01T18:14:13.611Z,39.00
2022-09-01T18:16:59.829Z,39.50
2022-09-01T18:19:36.378Z,39.70
2022-09-01T18:22:07.456Z,40.00
2022-09-01T18:24:52.775Z,40.30
2022-09-01T18:27:19.538Z,40.40
2022-09-01T18:29:52.043Z,40.40
2022-09-01T18:32:58.120Z,40.80
2022-09-01T18:35:49.360Z,41.10
2022-09-01T18:38:29.166Z,41.40
2022-09-01T18:41:04.388Z,41.60
2022-09-01T18:43:49.379Z,41.70
2022-09-01T18:46:28.119Z,41.90
2022-09-01T18:49:13.403Z,41.90
2022-09-01T18:51:52.811Z,41.90
2022-09-01T18:54:28.178Z,42.30
2022-09-01T18:57:06.720Z,42.50
2022-09-01T18:59:36.764Z,42.60
2022-09-01T19:02:40.127Z,43.00
2022-09-01T19:05:16.356Z,42.80
2022-09-01T19:07:55.626Z,43.20
2022-09-01T19:10:55.983Z,43.40
2022-09-01T19:13:30.228Z,43.50
2022-09-01T19:16:24.603Z,43.80
2022-09-01T19:19:11.026Z,43.60
2022-09-01T19:21:37.780Z,43.80
2022-09-01T19:24:41.217Z,43.90
2022-09-01T19:27:12.948Z,43.90
2022-09-01T19:30:05.780Z,43.90
2022-09-01T19:32:35.408Z,44.10
2022-09-01T19:35:13.263Z,44.10
2022-09-01T19:37:40.443Z,44.10
2022-09-01T19:40:10.234Z,44.20
2022-09-01T19:42:55.845Z,44.10
2022-09-01T19:45:37.869Z,44.20
2022-09-01T19:48:17.873Z,45.30
2022-09-01T19:50:56.410Z,44.30
2022-09-01T19:53:44.227Z,44.30
2022-09-01T19:56:17.217Z,44.40
2022-09-01T19:58:43.823Z,44.40
2022-09-01T20:01:21.213Z,44.40
2022-09-01T20:03:57.442Z,44.60
2022-09-01T20:06:34.276Z,46.10
2022-09-01T20:09:07.147Z,45.20
2022-09-01T20:12:04.426Z,45.20
2022-09-01T20:15:06.748Z,45.20
2022-09-01T20:17:42.375Z,45.30
2022-09-01T20:20:15.886Z,45.40
2022-09-01T20:23:07.954Z,45.70
2022-09-01T20:25:42.688Z,45.50
2022-09-01T20:28:25.499Z,45.80
2022-09-01T20:31:01.098Z,46.10
2022-09-01T20:33:40.244Z,46.20
2022-09-01T20:36:18.917Z,46.30
2022-09-01T20:39:15.112Z,46.40
2022-09-01T20:42:06.522Z,46.40
2022-09-01T20:44:43.485Z,46.40
2022-09-01T20:47:11.784Z,46.50
2022-09-01T20:49:39.322Z,46.80
2022-09-01T20:52:13.863Z,46.80
2022-09-01T20:54:55.671Z,47.20
2022-09-01T20:57:36.067Z,47.20
2022-09-01T21:00:09.876Z,47.20
2022-09-01T21:02:56.034Z,47.20
2022-09-01T21:05:28.686Z,47.10
2022-09-01T21:08:01.034Z,47.30
2022-09-01T21:10:47.981Z,47.10
2022-09-01T21:13:25.177Z,47.30
2022-09-01T21:16:03.730Z,47.50
2022-09-01T21:18:43.755Z,47.50
2022-09-01T21:21:29.935Z,47.60
2022-09-01T21:23:56.617Z,48.00
2022-09-01T21:26:23.510Z,47.90
2022-09-01T21:28:55.090Z,48.20
2022-09-01T21:31:24.071Z,48.00
2022-09-01T21:33:51.338Z,48.40
2022-09-01T21:36:18.483Z,48.50
2022-09-01T21:38:45.139Z,48.50
2022-09-01T21:41:13.162Z,48.30
2022-09-01T21:43:43.250Z,48.60
2022-09-01T21:46:10.673Z,48.50
2022-09-01T21:48:37.485Z,48.40
2022-09-01T21:51:04.767Z,48.60
2022-09-01T21:53:32.551Z,48.60
2022-09-01T21:55:59.603Z,48.30
2022-09-01T21:58:26.250Z,48.20
2022-09-01T22:00:52.944Z,48.20
2022-09-01T22:03:19.780Z,48.40
2022-09-01T22:05:46.618Z,48.50
2022-09-01T22:08:16.669Z,48.40
2022-09-01T22:10:46.914Z,48.40
2022-09-01T22:13:14.106Z,48.20
2022-09-01T22:15:46.762Z,48.30
2022-09-01T22:18:13.928Z,48.40
2022-09-01T22:20:41.326Z,48.40
2022-09-01T22:23:08.525Z,48.50
2022-09-01T22:25:36.287Z,49.50
2022-09-01T22:28:06.043Z,48.30
2022-09-01T22:30:33.594Z,48.30
2022-09-01T22:33:00.989Z,48.40
2022-09-01T22:35:28.272Z,48.50
2022-09-01T22:37:55.295Z,48.60
2022-09-01T22:40:22.026Z,48.60
2022-09-01T22:42:48.742Z,48.60
2022-09-01T22:45:15.482Z,48.70
2022-09-01T22:47:42.409Z,48.90
2022-09-01T22:50:10.171Z,48.90
2022-09-01T22:52:37.301Z,49.00
2022-09-01T22:55:05.662Z,49.00
2022-09-01T22:57:32.504Z,49.00
2022-09-01T22:59:59.249Z,49.20
2022-09-01T23:02:27.108Z,49.20
2022-09-01T23:04:54.161Z,49.10
2022-09-01T23:07:20.797Z,49.30
2022-09-01T23:09:47.451Z,49.50
2022-09-01T23:12:14.711Z,49.30
2022-09-01T23:14:41.631Z,49.40
2022-09-01T23:17:08.404Z,49.50
2022-09-01T23:19:35.191Z,49.60
2022-09-01T23:22:03.116Z,49.80
2022-09-01T23:24:29.887Z,49.90
2022-09-01T23:26:56.840Z,49.90
2022-09-01T23:29:25.167Z,49.90
2022-09-01T23:31:51.923Z,49.90
2022-09-01T23:34:18.713Z,50.20
2022-09-01T23:36:45.750Z,50.30
2022-09-01T23:39:12.411Z,50.20
2022-09-01T23:41:39.127Z,50.00
2022-09-01T23:44:09.398Z,50.20
2022-09-01T23:46:41.206Z,50.20
2022-09-01T23:49:08.990Z,50.40
2022-09-01T23:51:36.113Z,50.30
2022-09-01T23:54:03.035Z,50.20
2022-09-01T23:56:30.521Z,50.30
2022-09-01T23:58:59.519Z,50.20
